• Join FlightAware (Why Join?)
  • Login
  • US Flag 
03:06PM EDT


 

Airport Tracker/Info


-or-


 

Live Flight TrackerFlight Track Log ✈ JA-738J ✈ 09-Apr-2013 ✈ KORD - RJAA / NRT

Flight Track Log - Related Links

Times and Time Zones

All times are in EDT time to prevent confusion due to time zone crossing. See the JA-738J flight status page for this flight to view local times or setup timezone preferences in your user account.

Time Position Orientation Groundspeed Altitude Reporting Facility
EDT Latitude Longitude Course Direction KTS MPH feet Rate Location/Type
12:51PM 42.0120 -87.9260 321° Northwest 188 216 1,600  Level FlightAware
12:51PM 42.0240 -87.9320 340° North 203 234 2,000 1,800 Climbing FlightAware
12:52PM 42.0500 -87.9270 North 225 259 2,800 1,920 Climbing FlightAware
12:52PM 42.0740 -87.9160 19° North 234 269 3,600 1,920 Climbing FlightAware
12:52PM 42.1040 -87.9000 22° Northeast 246 283 4,600 1,800 Climbing FlightAware
12:53PM 42.1170 -87.8930 22° Northeast 260 299 4,800 1,200 Climbing FlightAware
12:53PM 42.1540 -87.8750 20° North 301 346 5,400 1,860 Climbing FlightAware
12:54PM 42.1950 -87.8560 19° North 313 360 6,700 2,760 Climbing FlightAware
12:54PM 42.2370 -87.8380 18° North 318 366 8,200 2,880 Climbing FlightAware
12:55PM 42.2780 -87.8220 16° North 317 365 9,600 2,400 Climbing FlightAware
12:55PM 42.3390 -87.8180 North 338 389 11,000 1,800 Climbing FlightAware
12:56PM 42.4060 -87.8140 North 377 434 12,000 1,920 Climbing FlightAware
12:57PM 42.4770 -87.8090 North 393 452 13,600 2,580 Climbing FlightAware
12:57PM 42.5610 -87.8020 North 403 464 15,700 2,580 Climbing FlightAware
12:58PM 42.6360 -87.7950 North 411 473 17,300 2,400 Climbing FlightAware
12:59PM 42.6920 -87.8010 355° North 401 461 18,500 2,280 Climbing FlightAware
12:59PM 42.7620 -87.8510 332° Northwest 380 437 20,200 2,160 Climbing FlightAware
01:00PM 42.8140 -87.9140 318° Northwest 386 444 21,600 1,980 Climbing FlightAware
01:01PM 42.8680 -87.9810 318° Northwest 394 453 22,900 2,100 Climbing FlightAware
01:01PM 42.9230 -88.0470 319° Northwest 393 452 24,400 1,440 Climbing FlightAware
01:02PM 42.9930 -88.1330 318° Northwest 400 460 25,200 1,320 Climbing FlightAware
01:03PM 43.0640 -88.2190 319° Northwest 425 489 26,600 1,500 Climbing FlightAware
01:04PM 43.1310 -88.2950 320° Northwest 440 506 27,500 1,320 Climbing FlightAware
01:04PM 43.2020 -88.3590 327° Northwest 446 513 28,500 1,800 Climbing FlightAware
01:05PM 43.2690 -88.4180 327° Northwest 437 503 29,900 1,740 Climbing FlightAware
01:06PM 43.3460 -88.4860 327° Northwest 440 506 31,000 1,380 Climbing FlightAware
01:06PM 43.4160 -88.5480 327° Northwest 444 511 31,900 660 Climbing FlightAware
01:07PM 43.4940 -88.6180 327° Northwest 443 510 32,000 60 Climbing FlightAware
01:08PM 43.5600 -88.6760 328° Northwest 441 507 32,000  Level FlightAware
01:09PM 43.6290 -88.7380 327° Northwest 440 506 32,000  Level FlightAware
01:09PM 43.7040 -88.8060 327° Northwest 442 509 32,000  Level FlightAware
01:10PM 43.7750 -88.8690 327° Northwest 443 510 32,000  Level FlightAware
01:11PM 43.8530 -88.9390 327° Northwest 447 514 32,000  Level FlightAware
01:11PM 43.9230 -89.0030 327° Northwest 447 514 32,000  Level FlightAware
01:12PM 43.9910 -89.0640 327° Northwest 448 516 32,000  Level FlightAware
01:13PM 44.0700 -89.1360 327° Northwest 444 511 32,000  Level FlightAware
01:13PM 44.1360 -89.1960 327° Northwest 441 507 32,000  Level FlightAware
01:14PM 44.2020 -89.2580 326° Northwest 441 507 32,000  Level FlightAware
01:15PM 44.2800 -89.3280 327° Northwest 444 511 32,000  Level FlightAware
01:16PM 44.3510 -89.3940 326° Northwest 450 518 32,000  Level FlightAware
01:16PM 44.4320 -89.4680 327° Northwest 459 528 32,000  Level FlightAware
01:17PM 44.4920 -89.5240 326° Northwest 461 531 32,000  Level FlightAware
01:18PM 44.5610 -89.5890 326° Northwest 461 531 32,000  Level FlightAware
01:18PM 44.6500 -89.6710 327° Northwest 469 540 32,000  Level FlightAware
01:19PM 44.7290 -89.7440 327° Northwest 470 541 32,000  Level FlightAware
01:20PM 44.7920 -89.8040 326° Northwest 471 542 32,000  Level FlightAware
01:20PM 44.8770 -89.8840 326° Northwest 473 544 32,000  Level FlightAware
01:21PM 44.9640 -89.9660 326° Northwest 475 547 32,000  Level FlightAware
01:22PM 45.0370 -90.0370 326° Northwest 474 545 32,000  Level FlightAware
01:23PM 45.1140 -90.1160 324° Northwest 476 548 32,000  Level FlightAware
01:23PM 45.1860 -90.1900 324° Northwest 478 550 32,000  Level FlightAware
01:24PM 45.2690 -90.2750 324° Northwest 479 551 32,000  Level FlightAware
01:25PM 45.3400 -90.3480 324° Northwest 480 552 32,000  Level FlightAware
01:25PM 45.4120 -90.4230 324° Northwest 481 554 32,000  Level FlightAware
01:26PM 45.4920 -90.5050 324° Northwest 483 556 32,000  Level FlightAware
01:27PM 45.5630 -90.5790 324° Northwest 482 555 32,000  Level FlightAware
01:27PM 45.6350 -90.6540 324° Northwest 480 552 32,000  Level FlightAware
01:28PM 45.7190 -90.7410 324° Northwest 479 551 32,000  Level FlightAware
01:29PM 45.7890 -90.8140 324° Northwest 480 552 32,000  Level FlightAware
01:30PM 45.8680 -90.8980 323° Northwest 480 552 32,000  Level FlightAware
01:30PM 45.9400 -90.9740 324° Northwest 479 551 32,000  Level FlightAware
01:31PM 46.0100 -91.0480 324° Northwest 474 545 32,000  Level FlightAware
01:32PM 46.0920 -91.1350 324° Northwest 470 541 32,000  Level FlightAware
01:32PM 46.1610 -91.2080 324° Northwest 469 540 32,000  Level FlightAware
01:33PM 46.2310 -91.2840 323° Northwest 473 544 32,000  Level FlightAware
01:34PM 46.3080 -91.3670 323° Northwest 475 547 32,000  Level FlightAware
01:35PM 46.3890 -91.4540 323° Northwest 473 544 32,000  Level FlightAware
01:35PM 46.4590 -91.5300 323° Northwest 470 541 32,000  Level FlightAware
01:36PM 46.5290 -91.6060 323° Northwest 470 541 32,000  Level FlightAware
01:37PM 46.6050 -91.6890 323° Northwest 472 543 32,000  Level FlightAware
01:37PM 46.6740 -91.7650 323° Northwest 472 543 32,000  Level FlightAware
01:38PM 46.7450 -91.8420 323° Northwest 470 541 32,000  Level FlightAware
01:39PM 46.8250 -91.9300 323° Northwest 470 541 32,000  Level FlightAware
01:39PM 46.8940 -92.0060 323° Northwest 471 542 32,000  Level FlightAware
01:40PM 46.9710 -92.0920 323° Northwest 471 542 32,000  Level FlightAware
01:41PM 47.0390 -92.1670 323° Northwest 469 540 32,000  Level FlightAware
01:41PM 47.1080 -92.2440 323° Northwest 467 537 32,000  Level FlightAware
01:42PM 47.1870 -92.3330 323° Northwest 466 536 32,000  Level FlightAware
01:43PM 47.2560 -92.4100 323° Northwest 465 535 32,000  Level FlightAware
01:44PM 47.3290 -92.4930 322° Northwest 464 534 32,000  Level FlightAware
01:44PM 47.3980 -92.5710 323° Northwest 462 532 32,000  Level FlightAware
01:45PM 47.4760 -92.6600 322° Northwest 459 528 32,000  Level FlightAware
01:46PM 47.5430 -92.7350 323° Northwest 458 527 32,000  Level FlightAware
01:46PM 47.6100 -92.8120 322° Northwest 457 526 32,000  Level FlightAware
01:47PM 47.6830 -92.8970 322° Northwest 456 525 32,000  Level FlightAware
01:48PM 47.7430 -92.9660 322° Northwest 456 525 32,000  Level FlightAware
01:49PM 47.8260 -93.0610 322° Northwest 458 527 32,000  Level FlightAware
01:49PM 47.8920 -93.1390 322° Northwest 458 527 32,000  Level FlightAware
01:50PM 47.9600 -93.2170 322° Northwest 456 525 32,000  Level FlightAware
01:51PM 48.0330 -93.3030 322° Northwest 457 526 32,000  Level FlightAware
01:51PM 48.0990 -93.3800 322° Northwest 458 527 32,000  Level FlightAware
01:52PM 48.1920 -93.4890 322° Northwest 457 526 32,000  Level FlightAware
01:53PM 48.2650 -93.5760 322° Northwest 461 531 32,000  Level FlightAware
01:54PM 48.3320 -93.6550 322° Northwest 461 531 32,000  Level FlightAware
01:54PM 48.4070 -93.7450 321° Northwest 459 528 32,000  Level FlightAware
01:55PM 48.4760 -93.8260 322° Northwest 458 527 32,000 -360 Level FlightAware
01:56PM 48.5320 -93.8950 321° Northwest 456 525 31,600 -480 Descending FlightAware
01:56PM 48.5990 -93.9760 321° Northwest 456 525 31,400 -180 Descending FlightAware
01:57PM 48.6550 -94.0440 321° Northwest 456 525 31,400  Level FlightAware
01:58PM 48.7100 -94.1120 321° Northwest 456 525 31,400  Level FlightAware
01:59PM 48.7800 -94.1980 321° Northwest 456 525 31,400  Level FlightAware
01:59PM 48.8360 -94.2660 321° Northwest 456 525 31,400  Level FlightAware
02:00PM 48.8910 -94.3350 320° Northwest 456 525 31,400  Level FlightAware
02:01PM 48.9470 -94.4040 321° Northwest 456 525 31,400  Level FlightAware
02:01PM 49.0030 -94.4730 321° Northwest 456 525 31,400  Level FlightAware
02:02PM 49.0730 -94.5590 321° Northwest 456 525 31,400  Level FlightAware
02:03PM 49.1280 -94.6280 321° Northwest 456 525 31,400  Level FlightAware
02:03PM 49.1840 -94.6970 321° Northwest 456 525 31,400  Level FlightAware
02:04PM 49.2400 -94.7660 321° Northwest 456 525 31,400  Level FlightAware
02:05PM 49.2960 -94.8350 321° Northwest 456 525 31,400  Level FlightAware
02:06PM 49.3650 -94.9220 321° Northwest 456 525 31,400 -480 Level FlightAware
02:12PM 50.0810 -95.8340 321° Northwest 430 495 28,000 -480 Descending FlightAware
02:13PM 50.1470 -95.9200 320° Northwest 428 493 28,000  Level FlightAware
02:14PM 50.2080 -96.0030 319° Northwest 428 493 28,000  Level FlightAware
02:14PM 50.2780 -96.0930 321° Northwest 427 491 28,000  Level FlightAware
02:15PM 50.3430 -96.1780 320° Northwest 426 490 28,000  Level FlightAware
02:16PM 50.4000 -96.2560 319° Northwest 426 490 28,000  Level FlightAware
02:16PM 50.4550 -96.3270 321° Northwest 425 489 28,000  Level FlightAware
02:17PM 50.5450 -96.4490 319° Northwest 425 489 28,000  Level FlightAware
02:18PM 50.6040 -96.5270 320° Northwest 28,000  Level FlightAware
02:19PM 50.6690 -96.6160 319° Northwest 425 489 28,000  Level FlightAware
02:19PM 50.7190 -96.6850 319° Northwest 425 489 28,000  Level FlightAware
02:20PM 50.7700 -96.7540 319° Northwest 425 489 28,000  Level FlightAware
02:21PM 50.8330 -96.8410 319° Northwest 425 489 28,000  Level FlightAware
02:22PM 50.8830 -96.9110 319° Northwest 425 489 28,000  Level FlightAware
02:22PM 50.9340 -96.9800 320° Northwest 425 489 28,000  Level FlightAware
02:23PM 51.0000 -97.0667 320° Northwest 420 483 28,000  Level Winnipeg Center
02:24PM 51.0833 -97.2000 315° West 420 483 28,000  Level Winnipeg Center
02:25PM 51.1667 -97.3167 319° Northwest 420 483 28,000  Level Winnipeg Center
02:26PM 51.2667 -97.4500 320° Northwest 420 483 28,000  Level Winnipeg Center
02:27PM 51.3500 -97.5500 323° Northwest 420 483 28,000 900 Level Winnipeg Center
02:28PM 51.4500 -97.6833 320° Northwest 430 495 29,900 1,860 Climbing Winnipeg Center
02:29PM 51.5333 -97.8333 312° West 420 483 31,800 1,560 Climbing Winnipeg Center
02:30PM 51.6167 -97.9333 323° Northwest 420 483 33,100 1,080 Climbing Winnipeg Center
02:31PM 51.7000 -98.0667 315° West 410 472 34,000 420 Climbing Winnipeg Center
02:32PM 51.7833 -98.1833 319° Northwest 420 483 34,000  Level Winnipeg Center
02:33PM 51.8833 -98.3167 321° Northwest 420 483 34,000  Level Winnipeg Center
02:34PM 51.9667 -98.4667 312° West 430 495 34,000  Level Winnipeg Center
02:35PM 52.0667 -98.6000 321° Northwest 430 495 34,000  Level Winnipeg Center
02:36PM 52.1500 -98.7167 319° Northwest 430 495 34,000  Level Winnipeg Center
02:37PM 52.2333 -98.8500 316° Northwest 440 506 34,000  Level Winnipeg Center
02:38PM 52.3167 -98.9833 316° Northwest 440 506 34,000  Level Winnipeg Center
02:39PM 52.4167 -99.1333 318° Northwest 450 518 34,000  Level Winnipeg Center
02:40PM 52.5000 -99.2667 316° Northwest 450 518 34,000  Level Winnipeg Center
02:41PM 52.6000 -99.4167 318° Northwest 450 518 34,000  Level Winnipeg Center
02:42PM 52.7000 -99.5667 318° Northwest 450 518 34,000  Level Winnipeg Center
02:43PM 52.7833 -99.6833 320° Northwest 450 518 34,000  Level Winnipeg Center
02:44PM 52.8667 -99.8167 316° Northwest 450 518 34,000  Level Winnipeg Center
02:45PM 52.9667 -99.9667 318° Northwest 460 529 34,000  Level Winnipeg Center
02:46PM 53.0667 -100.1167 318° Northwest 450 518 34,000  Level Winnipeg Center
02:51PM 53.6250 -100.9450 318° Northwest 457 526 34,000  Level FlightAware
02:52PM 53.6940 -101.0520 317° Northwest 456 525 34,000  Level FlightAware
02:53PM 53.7300 -101.1080 317° Northwest 456 525 34,000  Level FlightAware
02:54PM 53.8210 -101.2490 318° Northwest 456 525 34,000  Level FlightAware
02:54PM 53.8860 -101.3520 317° Northwest 455 524 34,000  Level FlightAware
02:55PM 53.9460 -101.4470 317° Northwest 454 522 34,000  Level FlightAware
02:56PM 54.0160 -101.5560 318° Northwest 456 525 34,000  Level FlightAware
02:56PM 54.0740 -101.6490 317° Northwest 457 526 34,000  Level FlightAware
02:57PM 54.1440 -101.7610 317° Northwest 458 527 34,000  Level FlightAware
02:58PM 54.2090 -101.8650 317° Northwest 459 528 34,000  Level FlightAware
02:59PM 54.2790 -101.9770 317° Northwest 460 529 34,000  Level FlightAware
02:59PM 54.3420 -102.0790 317° Northwest 460 529 34,000  Level FlightAware
03:00PM 54.4030 -102.1800 316° Northwest 461 531 34,000  Level FlightAware
03:01PM 54.4720 -102.2920 317° Northwest 460 529 34,000  Level FlightAware
03:01PM 54.5260 -102.3800 317° Northwest 459 528 34,000  Level FlightAware
03:02PM 54.6320 -102.5560 316° Northwest 460 529 34,000  Level FlightAware
03:03PM 54.6840 -102.6430 316° Northwest 460 529 34,000  Level FlightAware
03:04PM 54.7370 -102.7300 317° Northwest 460 529 34,000  Level FlightAware
03:04PM 54.6080 -102.5150 136° Southeast 34,000  Level FlightAware
03:05PM 54.8167 -102.9167 136° Southeast 460 529 34,000  Level Winnipeg Center
03:06PM 54.9167 -103.0833 316° Northwest 460 529 34,000  Level Winnipeg Center
03:07PM 55.0167 -103.2167 323° Northwest 460 529 34,000  Level Winnipeg Center
03:08PM 55.1000 -103.3833 311° West 460 529 34,000  Level Winnipeg Center
03:09PM 55.2000 -103.5333 319° Northwest 460 529 34,000  Level Winnipeg Center
03:10PM 55.2667 -103.7000 305° West 450 518 34,000  Level Winnipeg Center
03:11PM 55.3833 -103.8667 321° Northwest 450 518 34,000  Level Winnipeg Center
03:12PM 55.4500 -104.0000 311° West 450 518 34,000  Level Winnipeg Center
03:13PM 55.5500 -104.1667 317° Northwest 460 529 34,000  Level Winnipeg Center
03:14PM 55.6333 -104.3167 315° West 460 529 34,000  Level Winnipeg Center
03:15PM 55.7333 -104.4833 317° Northwest 460 529 34,000  Level Winnipeg Center
03:16PM 55.8167 -104.6500 312° West 460 529 34,000  Level Winnipeg Center
03:17PM 55.9167 -104.8167 317° Northwest 460 529 34,000  Level Winnipeg Center
03:18PM 56.0000 -104.9667 315° West 460 529 34,000  Level Winnipeg Center
03:19PM 56.0833 -105.1333 312° West 460 529 34,000  Level Winnipeg Center
03:20PM 56.1833 -105.3000 317° Northwest 460 529 34,000  Level Winnipeg Center
03:21PM 56.2500 -105.4667 306° West 460 529 34,000  Level Winnipeg Center
03:22PM 56.3500 -105.6333 317° Northwest 460 529 34,000  Level Winnipeg Center
03:23PM 56.4500 -105.7833 320° Northwest 460 529 34,000  Level Winnipeg Center
03:24PM 56.5500 -105.9333 320° Northwest 460 529 34,000  Level Winnipeg Center
03:25PM 56.6333 -106.0667 319° Northwest 460 529 34,000  Level Winnipeg Center
03:26PM 56.7333 -106.2167 321° Northwest 460 529 34,000  Level Winnipeg Center
03:27PM 56.8500 -106.3667 325° Northwest 460 529 34,000  Level Winnipeg Center
03:28PM 56.9333 -106.5167 316° Northwest 460 529 34,000  Level Winnipeg Center
03:29PM 57.0333 -106.7000 315° West 460 529 34,000  Level Winnipeg Center
03:30PM 57.1333 -106.8500 321° Northwest 460 529 34,000  Level Winnipeg Center
03:31PM 57.2333 -107.0000 321° Northwest 460 529 34,000  Level Winnipeg Center
03:32PM 57.3333 -107.1500 321° Northwest 460 529 34,000  Level Winnipeg Center
03:33PM 57.4167 -107.3000 316° Northwest 460 529 34,000  Level Winnipeg Center
03:34PM 57.5167 -107.4833 315° West 460 529 34,000  Level Winnipeg Center
03:35PM 57.6000 -107.6333 316° Northwest 460 529 34,000  Level Winnipeg Center
03:36PM 57.7000 -107.7833 321° Northwest 460 529 34,000  Level Winnipeg Center
03:37PM 57.8000 -107.9333 321° Northwest 450 518 34,000  Level Winnipeg Center
03:38PM 57.8833 -108.1000 313° West 460 529 34,000  Level Winnipeg Center
03:39PM 58.0000 -108.2500 326° Northwest 460 529 34,000  Level Winnipeg Center
03:40PM 58.0833 -108.4167 313° West 460 529 34,000  Level Winnipeg Center
03:41PM 58.1833 -108.6000 316° Northwest 460 529 34,000  Level Winnipeg Center
03:42PM 58.2500 -108.7000 322° Northwest 440 506 34,000  Level Edmonton Center
03:43PM 58.3500 -108.8667 319° Northwest 440 506 34,000  Level Edmonton Center
03:44PM 58.4500 -109.0167 322° Northwest 440 506 34,000  Level Edmonton Center
03:45PM 58.5333 -109.1833 314° West 440 506 34,000  Level Edmonton Center
03:46PM 58.6333 -109.3667 316° Northwest 440 506 34,000  Level Edmonton Center
03:47PM 58.7167 -109.5000 320° Northwest 440 506 34,000  Level Edmonton Center
03:48PM 58.8000 -109.6833 311° West 440 506 34,000  Level Edmonton Center
03:49PM 58.9000 -109.8500 319° Northwest 440 506 34,000  Level Edmonton Center
03:50PM 58.9833 -110.0000 317° Northwest 430 495 34,000  Level Edmonton Center
03:51PM 59.0667 -110.1833 312° West 430 495 34,000  Level Edmonton Center
03:52PM 59.1500 -110.3167 321° Northwest 430 495 34,000  Level Edmonton Center
03:53PM 59.2500 -110.5000 317° Northwest 440 506 34,000  Level Edmonton Center
03:54PM 59.3333 -110.6500 317° Northwest 430 495 34,000  Level Edmonton Center
03:55PM 59.4167 -110.8333 312° West 420 483 34,000  Level Edmonton Center
03:56PM 59.5000 -110.9833 318° Northwest 430 495 34,000  Level Edmonton Center
03:57PM 59.6000 -111.1667 317° Northwest 420 483 34,000  Level Edmonton Center
03:58PM 59.6667 -111.3500 306° West 430 495 34,000  Level Edmonton Center
03:59PM 59.7667 -111.5000 323° Northwest 420 483 34,000  Level Edmonton Center
04:00PM 59.8500 -111.6667 315° West 440 506 34,000  Level Edmonton Center
04:01PM 59.9333 -111.8500 312° West 430 495 34,000  Level Edmonton Center
04:02PM 60.0000 -112.0333 306° West 420 483 34,000  Level Edmonton Center
04:03PM 60.0833 -112.2167 312° West 430 495 34,000  Level Edmonton Center
04:04PM 60.1500 -112.4000 306° West 430 495 34,000  Level Edmonton Center
04:05PM 60.2333 -112.6333 306° West 420 483 34,000  Level Edmonton Center
04:06PM 60.2833 -112.8167 299° West 410 472 34,000  Level Edmonton Center
04:07PM 60.3667 -113.0000 313° West 410 472 34,000  Level Edmonton Center
04:08PM 60.4167 -113.1833 299° West 400 460 34,000  Level Edmonton Center
04:09PM 60.4833 -113.3833 304° West 400 460 34,000  Level Edmonton Center
04:10PM 60.5500 -113.5667 307° West 400 460 34,000  Level Edmonton Center
04:11PM 60.6000 -113.7667 297° West 400 460 34,000  Level Edmonton Center
04:12PM 60.6833 -113.9500 313° West 400 460 34,000  Level Edmonton Center
04:13PM 60.7333 -114.1500 297° West 400 460 34,000  Level Edmonton Center
04:14PM 60.7833 -114.3333 299° West 400 460 34,000  Level Edmonton Center
04:15PM 60.8667 -114.5333 311° West 400 460 34,000  Level Edmonton Center
04:16PM 60.9167 -114.7333 297° West 400 460 34,000  Level Edmonton Center
04:17PM 60.9667 -114.9167 299° West 400 460 34,000  Level Edmonton Center
04:18PM 61.0333 -115.1167 305° West 400 460 34,000  Level Edmonton Center
04:19PM 61.1000 -115.3167 305° West 400 460 34,000  Level Edmonton Center
04:20PM 61.1667 -115.5167 305° West 400 460 34,000  Level Edmonton Center
04:21PM 61.2167 -115.7167 298° West 400 460 34,000  Level Edmonton Center
04:22PM 61.2833 -115.9167 305° West 400 460 34,000  Level Edmonton Center
04:23PM 61.3333 -116.1167 298° West 400 460 34,000  Level Edmonton Center
04:24PM 61.4000 -116.3167 305° West 400 460 34,000  Level Edmonton Center
04:25PM 61.4667 -116.5167 305° West 400 460 34,000  Level Edmonton Center
04:26PM 61.5167 -116.7167 298° West 410 472 34,000  Level Edmonton Center
04:27PM 61.5833 -116.9167 305° West 410 472 34,000  Level Edmonton Center
04:28PM 61.6333 -117.1167 298° West 410 472 34,000  Level Edmonton Center
04:29PM 61.7000 -117.3667 299° West 410 472 34,000  Level Edmonton Center
04:30PM 61.7500 -117.5667 298° West 410 472 34,000  Level Edmonton Center
04:31PM 61.8167 -117.7833 303° West 420 483 34,000  Level Edmonton Center
04:32PM 61.8667 -117.9833 298° West 420 483 34,000  Level Edmonton Center
04:33PM 61.9333 -118.1833 305° West 420 483 34,000  Level Edmonton Center
04:34PM 61.9833 -118.4333 293° West 420 483 34,000  Level Edmonton Center
04:35PM 62.0333 -118.6500 296° West 420 483 34,000  Level Edmonton Center
04:36PM 62.1000 -118.8667 303° West 420 483 34,000  Level Edmonton Center
04:37PM 62.1667 -119.1167 300° West 420 483 34,000  Level Edmonton Center
04:38PM 62.2167 -119.3167 298° West 420 483 34,000  Level Edmonton Center
04:39PM 62.2833 -119.5333 304° West 430 495 34,000  Level Edmonton Center
04:40PM 62.3333 -119.7833 293° West 430 495 34,000  Level Edmonton Center
04:41PM 62.3833 -120.0000 297° West 430 495 34,000  Level Edmonton Center
04:42PM 62.4500 -120.2500 300° West 440 506 34,000  Level Edmonton Center
04:43PM 62.5000 -120.4667 297° West 430 495 34,000  Level Edmonton Center
04:44PM 62.5667 -120.7000 302° West 430 495 34,000  Level Edmonton Center
04:45PM 62.6167 -120.9500 294° West 440 506 34,000  Level Edmonton Center
04:46PM 62.6833 -121.2167 299° West 440 506 34,000  Level Edmonton Center
04:47PM 62.7500 -121.4333 304° West 440 506 34,000  Level Edmonton Center
04:48PM 62.8000 -121.7000 292° West 450 518 34,000  Level Edmonton Center
04:49PM 62.8500 -121.9167 297° West 440 506 34,000  Level Edmonton Center
04:50PM 62.9000 -122.1833 292° West 450 518 34,000  Level Edmonton Center
04:51PM 62.9500 -122.4000 297° West 440 506 34,000  Level Edmonton Center
04:52PM 63.0167 -122.6667 299° West 450 518 34,000  Level Edmonton Center
04:53PM 63.0667 -122.9000 295° West 450 518 34,000  Level Edmonton Center
04:55PM 63.1410 -123.3822 289° West  Level FlightAware Approximate
05:02PM 63.4095 -125.2457 289° West  Level FlightAware Approximate
05:03PM 63.4459 -125.5147 287° West  Level FlightAware Approximate
05:04PM 63.4817 -125.7844 287° West  Level FlightAware Approximate
05:05PM 63.5170 -126.0547 286° West  Level FlightAware Approximate
05:06PM 63.5519 -126.3258 286° West  Level FlightAware Approximate
05:07PM 63.5862 -126.5974 286° West  Level FlightAware Approximate
05:08PM 63.6200 -126.8698 286° West  Level FlightAware Approximate
05:09PM 63.6533 -127.1427 285° West  Level FlightAware Approximate
05:10PM 63.6861 -127.4164 285° West  Level FlightAware Approximate
05:11PM 63.7183 -127.6906 285° West  Level FlightAware Approximate
05:12PM 63.7500 -127.9654 285° West  Level FlightAware Approximate
05:13PM 63.7812 -128.2409 284° West  Level FlightAware Approximate
05:14PM 63.8119 -128.5170 284° West  Level FlightAware Approximate
05:15PM 63.8421 -128.7937 284° West  Level FlightAware Approximate
05:16PM 63.8717 -129.0709 284° West  Level FlightAware Approximate
05:17PM 63.9008 -129.3488 284° West  Level FlightAware Approximate
05:18PM 63.9294 -129.6272 283° West  Level FlightAware Approximate
05:19PM 63.9574 -129.9062 283° West  Level FlightAware Approximate
05:20PM 63.9838 -130.1837 282° West  Level FlightAware Approximate
05:21PM 64.0093 -130.4618 282° West  Level FlightAware Approximate
05:22PM 64.0343 -130.7404 282° West  Level FlightAware Approximate
05:23PM 64.0596 -131.0204 282° West  Level FlightAware Approximate
05:24PM 64.0844 -131.3008 282° West  Level FlightAware Approximate
05:25PM 64.1086 -131.5817 281° West  Level FlightAware Approximate
05:26PM 64.1323 -131.8632 281° West  Level FlightAware Approximate
05:27PM 64.1555 -132.1451 281° West  Level FlightAware Approximate
05:28PM 64.1781 -132.4274 281° West  Level FlightAware Approximate
05:29PM 64.2002 -132.7102 280° West  Level FlightAware Approximate
05:30PM 64.2217 -132.9935 280° West  Level FlightAware Approximate
05:31PM 64.2427 -133.2772 280° West  Level FlightAware Approximate
05:32PM 64.2632 -133.5613 280° West  Level FlightAware Approximate
05:33PM 64.2830 -133.8458 279° West  Level FlightAware Approximate
05:34PM 64.3024 -134.1308 279° West  Level FlightAware Approximate
05:35PM 64.3211 -134.4161 279° West  Level FlightAware Approximate
05:36PM 64.3393 -134.7018 279° West  Level FlightAware Approximate
05:37PM 64.3570 -134.9879 278° West  Level FlightAware Approximate
05:38PM 64.3741 -135.2744 278° West  Level FlightAware Approximate
05:39PM 64.3900 -135.5614 277° West  Level FlightAware Approximate
05:40PM 64.4044 -135.8490 277° West  Level FlightAware Approximate
05:41PM 64.4183 -136.1368 277° West  Level FlightAware Approximate
05:42PM 64.4316 -136.4250 276° West  Level FlightAware Approximate
05:43PM 64.4444 -136.7134 276° West  Level FlightAware Approximate
05:44PM 64.4566 -137.0021 276° West  Level FlightAware Approximate
05:45PM 64.4682 -137.2910 275° West  Level FlightAware Approximate
05:46PM 64.4793 -137.5802 275° West  Level FlightAware Approximate
05:47PM 64.4898 -137.8696 275° West  Level FlightAware Approximate
05:47PM 64.5333 -138.8833 274° West 490 564 34,000  Level Anchorage Center
05:48PM 64.4997 -138.1592 275° West  Level FlightAware Approximate
05:48PM 64.5333 -139.2000 270° West 490 564 34,000  Level Anchorage Center
05:49PM 64.5091 -138.4490 274° West  Level FlightAware Approximate
05:49PM 64.5500 -139.5167 277° West 490 564 34,000  Level Anchorage Center
05:50PM 64.5179 -138.7390 274° West  Level FlightAware Approximate
05:50PM 64.5500 -139.8333 270° West 510 587 34,000  Level Anchorage Center
05:51PM 64.5261 -139.0292 274° West  Level FlightAware Approximate
05:51PM 64.5667 -140.1667 277° West 490 564 34,000  Level Anchorage Center
05:52PM 64.5337 -139.3196 274° West  Level FlightAware Approximate
05:52PM 64.5667 -140.4667 270° West 490 564 34,000  Level Anchorage Center
05:53PM 64.5667 -140.8000 270° West 490 564 34,000  Level Anchorage Center
05:54PM 64.5833 -141.1167 277° West 490 564 34,000  Level Anchorage Center
05:55PM 64.6000 -141.4500 277° West 500 575 34,000  Level Anchorage Center
05:56PM 64.6167 -141.7500 278° West 490 564 34,000  Level Anchorage Center
05:57PM 64.6333 -142.0833 277° West 490 564 34,000  Level Anchorage Center
05:58PM 64.6500 -142.4000 277° West 500 575 34,000  Level Anchorage Center
05:59PM 64.6667 -142.7167 277° West 490 564 34,000  Level Anchorage Center
06:00PM 64.6667 -143.0333 270° West 500 575 34,000  Level Anchorage Center
06:01PM 64.6833 -143.3500 277° West 490 564 34,000  Level Anchorage Center
06:02PM 64.7000 -143.6667 277° West 480 552 34,000  Level Anchorage Center
06:03PM 64.7167 -144.0167 277° West 490 564 34,000  Level Anchorage Center
06:04PM 64.7167 -144.3167 270° West 490 564 34,000  Level Anchorage Center
06:05PM 64.7333 -144.6500 277° West 490 564 34,000  Level Anchorage Center
06:06PM 64.7333 -144.9667 270° West 490 564 34,000  Level Anchorage Center
06:07PM 64.7500 -145.2667 278° West 490 564 34,000  Level Anchorage Center
06:08PM 64.7500 -145.6000 270° West 490 564 34,000  Level Anchorage Center
06:09PM 64.7667 -145.9167 277° West 490 564 34,000  Level Anchorage Center
06:10PM 64.7667 -146.2500 270° West 490 564 34,000  Level Anchorage Center
06:11PM 64.7667 -146.5667 270° West 490 564 34,000  Level Anchorage Center
06:12PM 64.7833 -146.9000 277° West 500 575 34,000  Level Anchorage Center
06:13PM 64.7833 -147.2167 270° West 500 575 34,000  Level Anchorage Center
06:14PM 64.7833 -147.5000 270° West 490 564 34,000  Level Anchorage Center
06:15PM 64.7833 -147.8500 270° West 480 552 34,000  Level Anchorage Center
06:16PM 64.8000 -148.1833 277° West 490 564 34,000  Level Anchorage Center
06:17PM 64.8000 -148.4833 270° West 500 575 34,000  Level Anchorage Center
06:18PM 64.8167 -148.8000 277° West 490 564 34,000  Level Anchorage Center
06:19PM 64.8167 -149.1333 270° West 500 575 34,000  Level Anchorage Center
06:20PM 64.8167 -149.4667 270° West 500 575 34,000  Level Anchorage Center
06:21PM 64.8167 -149.8000 270° West 500 575 34,000  Level Anchorage Center
06:22PM 64.8167 -150.1333 270° West 500 575 34,000  Level Anchorage Center
06:23PM 64.8333 -150.4500 277° West 490 564 34,000 180 Level Anchorage Center
06:24PM 64.8333 -150.7833 270° West 500 575 34,400 540 Climbing Anchorage Center
06:25PM 64.8333 -151.1167 270° West 500 575 35,100 780 Climbing Anchorage Center
06:26PM 64.8333 -151.4333 270° West 490 564 36,000 420 Climbing Anchorage Center
06:27PM 64.8333 -151.7500 270° West 490 564 36,000  Level Anchorage Center
06:28PM 64.8333 -152.0667 270° West 490 564 36,000  Level Anchorage Center
06:29PM 64.8167 -152.3667 263° West 470 541 36,000  Level Anchorage Center
06:30PM 64.8167 -152.6833 270° West 480 552 36,000  Level Anchorage Center
06:31PM 64.8167 -152.9500 270° West 490 564 36,000  Level Anchorage Center
06:32PM 64.8167 -153.3333 270° West 480 552 36,000  Level Anchorage Center
06:33PM 64.8167 -153.6500 270° West 480 552 36,000  Level Anchorage Center
06:34PM 64.8000 -153.9667 263° West 480 552 36,000  Level Anchorage Center
06:35PM 64.8000 -154.2833 270° West 490 564 36,000  Level Anchorage Center
06:36PM 64.7833 -154.6167 263° West 490 564 36,000  Level Anchorage Center
06:37PM 64.7833 -154.9333 270° West 500 575 36,000  Level Anchorage Center
06:38PM 64.7833 -155.2667 270° West 500 575 36,000  Level Anchorage Center
06:39PM 64.7667 -155.5833 263° West 500 575 36,000  Level Anchorage Center
06:40PM 64.7500 -155.9167 263° West 500 575 36,000  Level Anchorage Center
06:41PM 64.7500 -156.2333 270° West 500 575 36,000  Level Anchorage Center
06:42PM 64.7333 -156.5667 263° West 500 575 36,000  Level Anchorage Center
06:43PM 64.7167 -156.8833 263° West 510 587 36,000  Level Anchorage Center
06:44PM 64.6667 -157.1333 245° Southwest 490 564 36,000  Level Anchorage Center
06:45PM 64.6000 -157.4000 240° Southwest 470 541 36,000  Level Anchorage Center
06:46PM 64.5333 -157.7500 246° West 480 552 36,000  Level Anchorage Center
06:47PM 64.4833 -158.0333 248° West 490 564 36,000  Level Anchorage Center
06:48PM 64.4167 -158.3167 242° Southwest 490 564 36,000  Level Anchorage Center
06:49PM 64.3500 -158.6000 242° Southwest 490 564 36,000  Level Anchorage Center
06:50PM 64.3000 -158.8667 247° West 480 552 36,000  Level Anchorage Center
06:51PM 64.2333 -159.1500 242° Southwest 480 552 36,000  Level Anchorage Center
06:52PM 64.1667 -159.4333 242° Southwest 490 564 36,000  Level Anchorage Center
06:53PM 64.1000 -159.7167 242° Southwest 490 564 36,000  Level Anchorage Center
06:54PM 64.0500 -159.9833 247° West 490 564 36,000  Level Anchorage Center
06:55PM 63.9833 -160.2667 242° Southwest 480 552 36,000  Level Anchorage Center
06:56PM 63.9167 -160.5333 240° Southwest 480 552 36,000  Level Anchorage Center
06:57PM 63.8500 -160.8000 241° Southwest 490 564 36,000  Level Anchorage Center
06:58PM 63.7833 -161.0667 241° Southwest 480 552 36,000  Level Anchorage Center
06:59PM 63.7167 -161.3167 239° Southwest 480 552 36,000  Level Anchorage Center
07:00PM 63.6333 -161.5833 235° Southwest 490 564 36,000  Level Anchorage Center
07:01PM 63.5667 -161.8333 239° Southwest 480 552 36,000  Level Anchorage Center
07:02PM 63.5000 -162.0667 237° Southwest 480 552 36,000  Level Anchorage Center
07:03PM 63.4167 -162.3333 235° Southwest 490 564 36,000  Level Anchorage Center
07:04PM 63.3500 -162.5833 239° Southwest 480 552 36,000  Level Anchorage Center
07:05PM 63.2667 -162.8333 234° Southwest 490 564 36,000  Level Anchorage Center
07:06PM 63.2000 -163.1000 241° Southwest 500 575 36,000  Level Anchorage Center
07:07PM 63.1167 -163.3500 234° Southwest 500 575 36,000  Level Anchorage Center
07:08PM 63.0500 -163.6000 240° Southwest 490 564 36,000  Level Anchorage Center
07:09PM 62.9667 -163.8500 234° Southwest 490 564 36,000  Level Anchorage Center
07:10PM 62.9000 -164.1000 240° Southwest 490 564 36,000  Level Anchorage Center
07:11PM 62.8167 -164.3500 234° Southwest 490 564 36,000  Level Anchorage Center
07:12PM 62.7333 -164.6000 234° Southwest 490 564 36,000  Level Anchorage Center
07:13PM 62.6500 -164.8667 236° Southwest 480 552 36,000  Level Anchorage Center
07:14PM 62.5833 -165.0833 236° Southwest 480 552 36,000  Level Anchorage Center
07:15PM 62.5167 -165.3333 240° Southwest 490 564 36,000  Level Anchorage Center
07:16PM 62.4167 -165.6000 231° Southwest 480 552 36,000  Level Anchorage Center
07:17PM 62.3500 -165.8167 237° Southwest 480 552 36,000  Level Anchorage Center
07:18PM 62.2833 -166.0500 239° Southwest 480 552 36,000  Level Anchorage Center
07:19PM 62.2000 -166.2833 233° Southwest 480 552 36,000  Level Anchorage Center
07:21PM 62.1010 -166.5775 234° Southwest  Level FlightAware Approximate
07:28PM 61.5778 -168.0723 234° Southwest  Level FlightAware Approximate
07:29PM 61.5017 -168.2817 233° Southwest  Level FlightAware Approximate
07:30PM 61.4254 -168.4901 233° Southwest  Level FlightAware Approximate
07:31PM 61.3487 -168.6974 232° Southwest  Level FlightAware Approximate
07:32PM 61.2717 -168.9037 232° Southwest  Level FlightAware Approximate
07:33PM 61.1944 -169.1092 232° Southwest  Level FlightAware Approximate
07:34PM 61.1170 -169.3139 232° Southwest  Level FlightAware Approximate
07:35PM 61.0393 -169.5177 232° Southwest  Level FlightAware Approximate
07:36PM 60.9613 -169.7204 232° Southwest  Level FlightAware Approximate
07:37PM 60.8830 -169.9221 231° Southwest  Level FlightAware Approximate
07:38PM 60.8044 -170.1228 231° Southwest  Level FlightAware Approximate
07:39PM 60.7255 -170.3226 231° Southwest  Level FlightAware Approximate
07:40PM 60.6464 -170.5214 231° Southwest  Level FlightAware Approximate
07:41PM 60.5669 -170.7191 231° Southwest  Level FlightAware Approximate
07:42PM 60.4871 -170.9160 231° Southwest  Level FlightAware Approximate
07:43PM 60.4070 -171.1118 230° Southwest  Level FlightAware Approximate
07:44PM 60.3267 -171.3067 230° Southwest  Level FlightAware Approximate
07:45PM 60.2460 -171.5006 230° Southwest  Level FlightAware Approximate
07:46PM 60.1651 -171.6936 230° Southwest  Level FlightAware Approximate
07:47PM 60.0839 -171.8857 230° Southwest  Level FlightAware Approximate
07:48PM 60.0025 -172.0767 230° Southwest  Level FlightAware Approximate
07:49PM 59.9207 -172.2669 229° Southwest  Level FlightAware Approximate
07:50PM 59.8387 -172.4561 229° Southwest  Level FlightAware Approximate
07:51PM 59.7564 -172.6444 229° Southwest  Level FlightAware Approximate
07:52PM 59.6738 -172.8317 229° Southwest  Level FlightAware Approximate
07:53PM 59.5910 -173.0181 229° Southwest  Level FlightAware Approximate
07:54PM 59.5079 -173.2036 229° Southwest  Level FlightAware Approximate
07:55PM 59.4246 -173.3882 228° Southwest  Level FlightAware Approximate
07:56PM 59.3410 -173.5719 228° Southwest  Level FlightAware Approximate
07:57PM 59.2571 -173.7547 228° Southwest  Level FlightAware Approximate
07:58PM 59.1735 -173.9356 228° Southwest  Level FlightAware Approximate
07:59PM 59.0896 -174.1155 228° Southwest  Level FlightAware Approximate
08:00PM 59.0240 -174.3178 247° West  Level FlightAware Approximate
08:01PM 58.9745 -174.5402 247° West  Level FlightAware Approximate
08:02PM 58.9247 -174.7619 247° West  Level FlightAware Approximate
08:03PM 58.8745 -174.9830 246° West  Level FlightAware Approximate
08:04PM 58.8239 -175.2034 246° West  Level FlightAware Approximate
08:05PM 58.7730 -175.4232 246° West  Level FlightAware Approximate
08:06PM 58.7216 -175.6424 246° West  Level FlightAware Approximate
08:07PM 58.6699 -175.8609 246° West  Level FlightAware Approximate
08:08PM 58.6179 -176.0787 245° Southwest  Level FlightAware Approximate
08:09PM 58.5654 -176.2959 245° Southwest  Level FlightAware Approximate
08:10PM 58.5126 -176.5125 245° Southwest  Level FlightAware Approximate
08:11PM 58.4594 -176.7283 245° Southwest  Level FlightAware Approximate
08:12PM 58.4059 -176.9436 245° Southwest  Level FlightAware Approximate
08:13PM 58.3525 -177.1586 245° Southwest  Level FlightAware Approximate
08:14PM 58.2999 -177.3740 245° Southwest  Level FlightAware Approximate
08:15PM 58.2470 -177.5889 245° Southwest  Level FlightAware Approximate
08:16PM 58.1937 -177.8030 245° Southwest  Level FlightAware Approximate
08:17PM 58.1401 -178.0166 245° Southwest  Level FlightAware Approximate
08:18PM 58.0861 -178.2295 244° Southwest  Level FlightAware Approximate
08:19PM 58.0318 -178.4417 244° Southwest  Level FlightAware Approximate
08:20PM 57.9771 -178.6533 244° Southwest  Level FlightAware Approximate
08:21PM 57.9220 -178.8643 244° Southwest  Level FlightAware Approximate
08:22PM 57.8666 -179.0746 244° Southwest  Level FlightAware Approximate
08:23PM 57.8109 -179.2842 244° Southwest  Level FlightAware Approximate
08:24PM 57.7548 -179.4932 243° Southwest  Level FlightAware Approximate
08:24PM 57.4333 179.3667 242° Southwest 484 557 37,000  Level Anchorage Center
08:25PM 57.6984 -179.7016 243° Southwest  Level FlightAware Approximate
08:26PM 57.6416 -179.9093 243° Southwest  Level FlightAware Approximate
08:27PM 57.5838 179.8843 242° Southwest  Level FlightAware Approximate
08:28PM 57.5252 179.6791 242° Southwest  Level FlightAware Approximate
08:29PM 57.4662 179.4745 242° Southwest  Level FlightAware Approximate
08:30PM 57.4069 179.2706 242° Southwest  Level FlightAware Approximate
08:31PM 57.0368 178.0322 241° Southwest 484 557 37,000  Level FlightAware Transoceanic
08:32PM 56.9693 177.8126 240° Southwest 484 557 37,000  Level FlightAware Transoceanic
08:33PM 56.9015 177.5938 240° Southwest 484 557 37,000  Level FlightAware Transoceanic
08:34PM 56.8332 177.3758 240° Southwest 484 557 37,000  Level FlightAware Transoceanic
08:34PM 56.8333 177.3500 240° Southwest 475 547 37,000  Level Anchorage Center
08:35PM 56.7646 177.1585 240° Southwest 484 557 37,000  Level FlightAware Transoceanic
08:36PM 56.6956 176.9421 240° Southwest 484 557 37,000  Level FlightAware Transoceanic
08:37PM 56.6263 176.7265 240° Southwest 484 557 37,000  Level FlightAware Transoceanic
08:38PM 56.5566 176.5116 239° Southwest 484 557 37,000  Level FlightAware Transoceanic
08:39PM 56.4865 176.2975 239° Southwest 484 557 37,000  Level FlightAware Transoceanic
08:40PM 56.4316 176.1118 239° Southwest 475 547 37,000  Level FlightAware Transoceanic
08:41PM 56.3634 175.9080 239° Southwest 475 547 37,000  Level FlightAware Transoceanic
08:42PM 56.2950 175.7049 239° Southwest 475 547 37,000  Level FlightAware Transoceanic
08:43PM 56.2262 175.5025 238° Southwest 475 547 37,000  Level FlightAware Transoceanic
08:44PM 56.1570 175.3009 238° Southwest 475 547 37,000  Level FlightAware Transoceanic
08:45PM 56.0876 175.1000 238° Southwest 475 547 37,000  Level FlightAware Transoceanic
08:46PM 56.0178 174.8998 238° Southwest 475 547 37,000  Level FlightAware Transoceanic
08:47PM 55.9477 174.7004 238° Southwest 475 547 37,000  Level FlightAware Transoceanic
08:48PM 55.8772 174.5017 238° Southwest 475 547 37,000  Level FlightAware Transoceanic
08:49PM 55.8065 174.3037 237° Southwest 475 547 37,000  Level FlightAware Transoceanic
08:50PM 55.7354 174.1064 237° Southwest 475 547 37,000  Level FlightAware Transoceanic
08:51PM 55.6640 173.9098 237° Southwest 475 547 37,000  Level FlightAware Transoceanic
08:52PM 55.5924 173.7140 237° Southwest 475 547 37,000  Level FlightAware Transoceanic
08:53PM 55.5203 173.5188 237° Southwest 475 547 37,000  Level FlightAware Transoceanic
08:54PM 55.4480 173.3244 237° Southwest 475 547 37,000  Level FlightAware Transoceanic
08:55PM 55.3754 173.1307 236° Southwest 475 547 37,000  Level FlightAware Transoceanic
08:56PM 55.3025 172.9377 236° Southwest 475 547 37,000  Level FlightAware Transoceanic
08:57PM 55.2293 172.7454 236° Southwest 475 547 37,000  Level FlightAware Transoceanic
08:58PM 55.1557 172.5538 236° Southwest 475 547 37,000  Level FlightAware Transoceanic
08:59PM 55.0819 172.3630 236° Southwest 475 547 37,000  Level FlightAware Transoceanic
09:00PM 55.0078 172.1728 236° Southwest 475 547 37,000  Level FlightAware Transoceanic
09:01PM 54.9333 171.9833 241° Southwest 475 547 37,000  Level FlightAware Transoceanic
09:02PM 54.8680 171.7784 241° Southwest 475 547 37,000  Level FlightAware Transoceanic
09:03PM 54.8023 171.5741 241° Southwest 475 547 37,000  Level FlightAware Transoceanic
09:04PM 54.7364 171.3705 241° Southwest 475 547 37,000  Level FlightAware Transoceanic
09:05PM 54.6700 171.1675 240° Southwest 475 547 37,000  Level FlightAware Transoceanic
09:06PM 54.6033 170.9652 240° Southwest 475 547 37,000  Level FlightAware Transoceanic
09:07PM 54.5363 170.7636 240° Southwest 475 547 37,000  Level FlightAware Transoceanic
09:08PM 54.4689 170.5626 240° Southwest 475 547 37,000  Level FlightAware Transoceanic
09:09PM 54.4013 170.3623 240° Southwest 475 547 37,000  Level FlightAware Transoceanic
09:10PM 54.3332 170.1627 240° Southwest 475 547 37,000  Level FlightAware Transoceanic
09:11PM 54.2649 169.9637 239° Southwest 475 547 37,000  Level FlightAware Transoceanic
09:12PM 54.1962 169.7654 239° Southwest 475 547 37,000  Level FlightAware Transoceanic
09:13PM 54.1272 169.5677 239° Southwest 475 547 37,000  Level FlightAware Transoceanic
09:14PM 54.0579 169.3707 239° Southwest 475 547 37,000  Level FlightAware Transoceanic
09:15PM 53.9883 169.1744 239° Southwest 475 547 37,000  Level FlightAware Transoceanic
09:16PM 53.9183 168.9787 239° Southwest 475 547 37,000  Level FlightAware Transoceanic
09:17PM 53.8480 168.7836 238° Southwest 475 547 37,000  Level FlightAware Transoceanic
09:18PM 53.7775 168.5892 238° Southwest 475 547 37,000  Level FlightAware Transoceanic
09:19PM 53.7066 168.3955 238° Southwest 475 547 37,000  Level FlightAware Transoceanic
09:20PM 53.6353 168.2025 238° Southwest 475 547 37,000  Level FlightAware Transoceanic
09:21PM 53.5638 168.0100 238° Southwest 475 547 37,000  Level FlightAware Transoceanic
09:21PM 53.4167 168.2333 240° Southwest 475 547 37,000  Level Anchorage Center
09:22PM 53.4920 167.8183 238° Southwest 475 547 37,000  Level FlightAware Transoceanic
09:23PM 53.4198 167.6272 238° Southwest 475 547 37,000  Level FlightAware Transoceanic
09:24PM 53.3474 167.4367 237° Southwest 475 547 37,000  Level FlightAware Transoceanic
09:25PM 53.2747 167.2469 237° Southwest 475 547 37,000  Level FlightAware Transoceanic
09:26PM 53.2016 167.0577 237° Southwest 475 547 37,000  Level FlightAware Transoceanic
09:27PM 53.1283 166.8692 237° Southwest 475 547 37,000  Level FlightAware Transoceanic
09:28PM 53.0094 167.0898 239° Southwest 475 547 37,000  Level FlightAware Transoceanic
09:29PM 52.9405 166.9013 239° Southwest 475 547 37,000  Level FlightAware Transoceanic
09:30PM 52.8712 166.7134 239° Southwest 475 547 37,000  Level FlightAware Transoceanic
09:31PM 52.8017 166.5262 238° Southwest 475 547 37,000  Level FlightAware Transoceanic
09:32PM 52.7319 166.3395 238° Southwest 475 547 37,000  Level FlightAware Transoceanic
09:33PM 52.6618 166.1534 238° Southwest 475 547 37,000  Level FlightAware Transoceanic
09:34PM 52.5914 165.9679 238° Southwest 475 547 37,000  Level FlightAware Transoceanic
09:35PM 52.5207 165.7830 238° Southwest 475 547 37,000  Level FlightAware Transoceanic
09:36PM 52.4497 165.5988 238° Southwest 475 547 37,000  Level FlightAware Transoceanic
09:37PM 52.3784 165.4151 237° Southwest 475 547 37,000  Level FlightAware Transoceanic
09:38PM 52.3069 165.2319 237° Southwest 475 547 37,000  Level FlightAware Transoceanic
09:39PM 52.2350 165.0494 237° Southwest 475 547 37,000  Level FlightAware Transoceanic
09:40PM 52.1629 164.8675 237° Southwest 475 547 37,000  Level FlightAware Transoceanic
09:41PM 52.0905 164.6862 237° Southwest 475 547 37,000  Level FlightAware Transoceanic
09:42PM 52.0179 164.5054 237° Southwest 475 547 37,000  Level FlightAware Transoceanic
09:43PM 51.9449 164.3253 237° Southwest 475 547 37,000  Level FlightAware Transoceanic
09:44PM 51.8717 164.1457 236° Southwest 475 547 37,000  Level FlightAware Transoceanic
09:44PM 51.8333 164.0667 236° Southwest 471 542 37,000  Level Anchorage Center
09:45PM 51.7982 163.9667 236° Southwest 475 547 37,000  Level FlightAware Transoceanic
09:46PM 51.7244 163.7883 236° Southwest 475 547 37,000  Level FlightAware Transoceanic
09:47PM 51.6504 163.6105 236° Southwest 475 547 37,000  Level FlightAware Transoceanic
09:47PM 51.6500 163.6500 236° Southwest 470 541 37,000  Level Anchorage Center
09:48PM 51.5761 163.4333 236° Southwest 475 547 37,000  Level FlightAware Transoceanic
09:49PM 51.5015 163.2566 236° Southwest 475 547 37,000  Level FlightAware Transoceanic
09:50PM 51.4560 163.1607 236° Southwest 471 542 37,000  Level FlightAware Transoceanic
09:51PM 51.3797 162.9814 236° Southwest 471 542 37,000  Level FlightAware Transoceanic
09:52PM 51.3031 162.8026 235° Southwest 471 542 37,000  Level FlightAware Transoceanic
09:53PM 51.2181 162.6260 236° Southwest 470 541 37,000  Level FlightAware Transoceanic
09:54PM 51.1452 162.4572 235° Southwest 470 541 37,000  Level FlightAware Transoceanic
09:55PM 51.0721 162.2890 235° Southwest 470 541 37,000  Level FlightAware Transoceanic
09:56PM 50.9988 162.1213 235° Southwest 470 541 37,000  Level FlightAware Transoceanic
09:57PM 50.9252 161.9541 235° Southwest 470 541 37,000  Level FlightAware Transoceanic
09:58PM 50.8514 161.7874 235° Southwest 470 541 37,000  Level FlightAware Transoceanic
09:59PM 50.7774 161.6213 235° Southwest 470 541 37,000  Level FlightAware Transoceanic
10:00PM 50.7031 161.4557 235° Southwest 470 541 37,000  Level FlightAware Transoceanic
10:01PM 50.6286 161.2906 234° Southwest 470 541 37,000  Level FlightAware Transoceanic
10:02PM 50.5538 161.1260 234° Southwest 470 541 37,000  Level FlightAware Transoceanic
10:03PM 50.4789 160.9620 234° Southwest 470 541 37,000  Level FlightAware Transoceanic
10:04PM 50.4037 160.7985 234° Southwest 470 541 37,000  Level FlightAware Transoceanic
10:05PM 50.3282 160.6355 234° Southwest 470 541 37,000  Level FlightAware Transoceanic
10:06PM 50.2526 160.4730 234° Southwest 470 541 37,000  Level FlightAware Transoceanic
10:06PM 50.2000 160.3833 234° Southwest 462 532 37,000  Level Anchorage Center
10:07PM 50.1767 160.3110 234° Southwest 470 541 37,000  Level FlightAware Transoceanic
10:08PM 50.1006 160.1496 234° Southwest 470 541 37,000  Level FlightAware Transoceanic
10:09PM 50.0242 159.9886 233° Southwest 470 541 37,000  Level FlightAware Transoceanic
10:10PM 49.9477 159.8282 233° Southwest 470 541 37,000  Level FlightAware Transoceanic
10:11PM 49.8709 159.6683 233° Southwest 470 541 37,000  Level FlightAware Transoceanic
10:12PM 49.7939 159.5089 233° Southwest 470 541 37,000  Level FlightAware Transoceanic
10:13PM 49.7167 159.3500 233° Southwest 462 532 37,000  Level FlightAware Transoceanic
10:14PM 49.6394 159.1923 233° Southwest 462 532 37,000  Level FlightAware Transoceanic
10:15PM 49.5619 159.0351 233° Southwest 462 532 37,000  Level FlightAware Transoceanic
10:16PM 49.4843 158.8784 233° Southwest 462 532 37,000  Level FlightAware Transoceanic
10:17PM 49.4064 158.7222 232° Southwest 462 532 37,000  Level FlightAware Transoceanic
10:18PM 49.3283 158.5665 232° Southwest 462 532 37,000  Level FlightAware Transoceanic
10:19PM 49.2500 158.4113 232° Southwest 462 532 37,000  Level FlightAware Transoceanic
10:20PM 49.1714 158.2565 232° Southwest 462 532 37,000  Level FlightAware Transoceanic
10:21PM 49.0927 158.1023 232° Southwest 462 532 37,000  Level FlightAware Transoceanic
10:22PM 49.0138 157.9485 232° Southwest 462 532 37,000  Level FlightAware Transoceanic
10:23PM 48.9347 157.7953 232° Southwest 462 532 37,000  Level FlightAware Transoceanic
10:24PM 48.8553 157.6425 232° Southwest 462 532 37,000  Level FlightAware Transoceanic
10:25PM 48.7758 157.4902 232° Southwest 462 532 37,000  Level FlightAware Transoceanic
10:26PM 48.6960 157.3384 231° Southwest 462 532 37,000  Level FlightAware Transoceanic
10:27PM 48.6161 157.1871 231° Southwest 462 532 37,000  Level FlightAware Transoceanic
10:28PM 48.5360 157.0362 231° Southwest 462 532 37,000  Level FlightAware Transoceanic
10:29PM 48.4557 156.8859 231° Southwest 462 532 37,000  Level FlightAware Transoceanic
10:30PM 48.3751 156.7360 231° Southwest 462 532 37,000  Level FlightAware Transoceanic
10:31PM 48.2944 156.5865 231° Southwest 462 532 37,000  Level FlightAware Transoceanic
10:32PM 48.2135 156.4376 231° Southwest 462 532 37,000  Level FlightAware Transoceanic
10:33PM 48.1324 156.2891 231° Southwest 462 532 37,000  Level FlightAware Transoceanic
10:34PM 48.0511 156.1411 231° Southwest 462 532 37,000  Level FlightAware Transoceanic
10:35PM 47.9696 155.9936 230° Southwest 462 532 37,000  Level FlightAware Transoceanic
10:36PM 47.8880 155.8465 230° Southwest 462 532 37,000  Level FlightAware Transoceanic
10:37PM 47.8061 155.6999 230° Southwest 462 532 37,000  Level FlightAware Transoceanic
10:38PM 47.7240 155.5537 230° Southwest 462 532 37,000  Level FlightAware Transoceanic
10:39PM 47.6418 155.4080 230° Southwest 462 532 37,000  Level FlightAware Transoceanic
10:40PM 47.5594 155.2628 230° Southwest 462 532 37,000  Level FlightAware Transoceanic
10:41PM 47.4768 155.1180 230° Southwest 462 532 37,000  Level FlightAware Transoceanic
10:42PM 47.3940 154.9737 230° Southwest 462 532 37,000  Level FlightAware Transoceanic
10:43PM 47.3111 154.8298 230° Southwest 462 532 37,000  Level FlightAware Transoceanic
10:44PM 47.2279 154.6864 229° Southwest 462 532 37,000  Level FlightAware Transoceanic
10:45PM 47.1446 154.5435 229° Southwest 462 532 37,000  Level FlightAware Transoceanic
10:46PM 47.0611 154.4009 229° Southwest 462 532 37,000  Level FlightAware Transoceanic
10:47PM 46.9775 154.2589 229° Southwest 462 532 37,000  Level FlightAware Transoceanic
10:48PM 46.8936 154.1172 229° Southwest 462 532 37,000  Level FlightAware Transoceanic
10:49PM 46.8096 153.9760 229° Southwest 462 532 37,000  Level FlightAware Transoceanic
10:50PM 46.7254 153.8353 229° Southwest 462 532 37,000  Level FlightAware Transoceanic
10:51PM 46.6410 153.6950 229° Southwest 462 532 37,000  Level FlightAware Transoceanic
10:52PM 46.5565 153.5551 229° Southwest 462 532 37,000  Level FlightAware Transoceanic
10:53PM 46.4718 153.4157 229° Southwest 462 532 37,000  Level FlightAware Transoceanic
10:54PM 46.3869 153.2767 228° Southwest 462 532 37,000  Level FlightAware Transoceanic
10:55PM 46.3019 153.1381 228° Southwest 462 532 37,000  Level FlightAware Transoceanic
10:56PM 46.2187 153.0033 228° Southwest  Level FlightAware Approximate
10:57PM 46.1355 152.8688 228° Southwest  Level FlightAware Approximate
10:58PM 46.1369 152.8728 228° Southwest  Level FlightAware Approximate
10:59PM 46.0534 152.7402 228° Southwest  Level FlightAware Approximate
11:00PM 45.9697 152.6079 228° Southwest  Level FlightAware Approximate
11:01PM 45.8859 152.4761 228° Southwest  Level FlightAware Approximate
11:02PM 45.8019 152.3447 228° Southwest  Level FlightAware Approximate
11:03PM 45.7178 152.2136 227° Southwest  Level FlightAware Approximate
11:04PM 45.6335 152.0830 227° Southwest  Level FlightAware Approximate
11:05PM 45.5490 151.9527 227° Southwest  Level FlightAware Approximate
11:06PM 45.4645 151.8229 227° Southwest  Level FlightAware Approximate
11:07PM 45.3797 151.6934 227° Southwest  Level FlightAware Approximate
11:08PM 45.2949 151.5643 227° Southwest  Level FlightAware Approximate
11:09PM 45.2099 151.4357 227° Southwest  Level FlightAware Approximate
11:10PM 45.1247 151.3073 227° Southwest  Level FlightAware Approximate
11:11PM 45.0394 151.1794 227° Southwest  Level FlightAware Approximate
11:12PM 44.9539 151.0519 227° Southwest  Level FlightAware Approximate
11:13PM 44.8683 150.9247 227° Southwest  Level FlightAware Approximate
11:14PM 44.7826 150.7979 226° Southwest  Level FlightAware Approximate
11:15PM 44.6967 150.6715 226° Southwest  Level FlightAware Approximate
11:16PM 44.6107 150.5455 226° Southwest  Level FlightAware Approximate
11:17PM 44.5246 150.4198 226° Southwest  Level FlightAware Approximate
11:18PM 44.4383 150.2945 226° Southwest  Level FlightAware Approximate
11:19PM 44.3519 150.1696 226° Southwest  Level FlightAware Approximate
11:20PM 44.2653 150.0450 226° Southwest  Level FlightAware Approximate
11:21PM 44.1786 149.9209 226° Southwest  Level FlightAware Approximate
11:22PM 44.0918 149.7970 226° Southwest  Level FlightAware Approximate
11:23PM 44.0048 149.6736 226° Southwest  Level FlightAware Approximate
11:24PM 43.9177 149.5505 226° Southwest  Level FlightAware Approximate
11:25PM 43.8305 149.4277 225° Southwest  Level FlightAware Approximate
11:26PM 43.7432 149.3053 225° Southwest  Level FlightAware Approximate
11:27PM 43.6557 149.1833 225° Southwest  Level FlightAware Approximate
11:28PM 43.5681 149.0617 225° Southwest  Level FlightAware Approximate
11:29PM 43.4803 148.9404 225° Southwest  Level FlightAware Approximate
11:30PM 43.3925 148.8194 225° Southwest  Level FlightAware Approximate
11:31PM 43.3045 148.6988 225° Southwest  Level FlightAware Approximate
11:32PM 43.2163 148.5785 225° Southwest  Level FlightAware Approximate
11:33PM 43.1281 148.4586 225° Southwest  Level FlightAware Approximate
11:33PM 43.2980 148.6900 225° Southwest 407 468 37,000  Level FlightAware
11:34PM 43.0397 148.3390 225° Southwest  Level FlightAware Approximate
11:34PM 43.2470 148.6200 225° Southwest 405 466 37,200  Level FlightAware
11:35PM 43.1920 148.5460 224° Southwest 409 471 37,600 540 Climbing FlightAware
11:35PM 43.1300 148.4600 225° Southwest 417 480 38,000 240 Climbing FlightAware
11:36PM 43.0710 148.3810 224° Southwest 435 501 38,000  Level FlightAware
11:37PM 43.0130 148.3030 225° Southwest 435 501 38,000  Level FlightAware
11:38PM 42.9530 148.2220 225° Southwest 436 502 38,000  Level FlightAware
11:38PM 42.8910 148.1390 224° Southwest 434 499 38,000  Level FlightAware
11:39PM 42.8270 148.0530 225° Southwest 428 493 38,000  Level FlightAware
11:40PM 42.7630 147.9670 225° Southwest 427 491 38,000  Level FlightAware
11:42PM 42.6009 147.7657 222° Southwest  Level Estimated
11:42PM 42.5920 147.7410 222° Southwest 425 489 38,000  Level FlightAware
11:42PM 42.5320 147.6610 225° Southwest 425 489 38,000  Level FlightAware
11:43PM 42.4740 147.5850 224° Southwest 423 487 38,000  Level FlightAware
11:44PM 42.4180 147.5110 224° Southwest 415 478 38,000  Level FlightAware
11:45PM 42.3500 147.4220 224° Southwest 411 473 38,000  Level FlightAware
11:45PM 42.2990 147.3550 224° Southwest 408 470 38,000  Level FlightAware
11:46PM 42.2330 147.2690 224° Southwest 405 466 38,000  Level FlightAware
11:47PM 42.1830 147.2030 224° Southwest 407 468 38,000  Level FlightAware
11:47PM 42.1260 147.1290 224° Southwest 410 472 38,000  Level FlightAware
11:48PM 42.0600 147.0450 223° Southwest 410 472 38,000  Level FlightAware
11:49PM 42.0050 146.9740 224° Southwest 408 470 38,000  Level FlightAware
11:49PM 41.9620 146.9180 224° Southwest 408 470 38,000  Level FlightAware
11:51PM 41.8450 146.7680 224° Southwest 406 467 38,000  Level FlightAware
11:52PM 41.7830 146.6880 224° Southwest 400 460 38,000  Level FlightAware
11:52PM 41.7220 146.6110 223° Southwest 398 458 38,000  Level FlightAware
11:53PM 41.6610 146.5330 224° Southwest 398 458 38,000  Level FlightAware
11:54PM 41.6140 146.4730 224° Southwest 399 459 38,000  Level FlightAware
11:55PM 41.4970 146.3250 223° Southwest 401 461 38,000  Level FlightAware
11:56PM 41.4420 146.2560 223° Southwest 403 464 38,000  Level FlightAware
11:56PM 41.3870 146.1860 224° Southwest 396 456 38,000  Level FlightAware
11:57PM 41.3440 146.1320 223° Southwest 386 444 38,000  Level FlightAware
11:58PM 41.2770 146.0490 223° Southwest 384 442 38,000  Level FlightAware
11:59PM 41.2220 145.9790 224° Southwest 386 444 38,000  Level FlightAware
11:59PM 41.1620 145.9050 223° Southwest 381 438 38,000  Level FlightAware
12:00AM 41.1120 145.8430 223° Southwest 376 433 38,000  Level FlightAware
12:01AM 41.0620 145.7800 224° Southwest 380 437 38,000  Level FlightAware
12:01AM 41.0000 145.7040 223° Southwest 376 433 38,000  Level FlightAware
12:02AM 40.9610 145.6560 223° Southwest 379 436 38,000  Level FlightAware
12:03AM 40.9090 145.5920 223° Southwest 383 441 38,000  Level FlightAware
12:05AM 40.7344 145.3746 223° Southwest  Level FlightAware Approximate
12:05AM 40.7270 145.3690 223° Southwest 396 456 38,000  Level FlightAware
12:06AM 40.6750 145.3060 223° Southwest 396 456 38,000  Level FlightAware
12:06AM 40.6100 145.2270 223° Southwest 397 457 38,000  Level FlightAware
12:07AM 40.5210 145.1190 223° Southwest 397 457 38,000  Level FlightAware
12:08AM 40.4430 145.0250 223° Southwest 392 451 38,000  Level FlightAware
12:09AM 40.3970 144.9710 222° Southwest 392 451 38,000  Level FlightAware
12:10AM 40.2800 144.8280 223° Southwest 390 449 38,000  Level FlightAware
12:11AM 40.2260 144.7640 222° Southwest 382 440 38,000  Level FlightAware
12:12AM 40.1670 144.6930 223° Southwest 379 436 38,000  Level FlightAware
12:12AM 40.1280 144.6450 223° Southwest 379 436 38,000  Level FlightAware
12:13AM 40.0730 144.5780 223° Southwest 379 436 38,000  Level FlightAware
12:14AM 40.0290 144.5250 223° Southwest 379 436 38,000  Level FlightAware
12:15AM 39.9860 144.4720 223° Southwest 379 436 38,000  Level FlightAware
12:15AM 39.9420 144.4190 223° Southwest 379 436 38,000  Level FlightAware
12:16AM 39.8990 144.3660 223° Southwest 379 436 38,000  Level FlightAware
12:17AM 39.8550 144.3130 223° Southwest 379 436 38,000  Level FlightAware
12:17AM 39.8000 144.2470 223° Southwest 379 436 38,000  Level FlightAware
12:18AM 39.7570 144.1940 223° Southwest 379 436 38,000  Level FlightAware
12:19AM 39.7130 144.1410 223° Southwest 379 436 38,000  Level FlightAware
12:19AM 39.6700 144.0880 224° Southwest 379 436 38,000  Level FlightAware
12:20AM 39.6150 144.0220 223° Southwest 379 436 38,000  Level FlightAware
12:21AM 39.5720 143.9700 223° Southwest 379 436 38,000  Level FlightAware
12:22AM 39.5280 143.9170 223° Southwest 379 436 38,000  Level FlightAware
12:24AM 39.3544 143.7231 221° Southwest  Level FlightAware Approximate
12:25AM 39.2605 143.6187 221° Southwest  Level FlightAware Approximate
12:26AM 39.1664 143.5144 221° Southwest  Level FlightAware Approximate
12:27AM 39.0729 143.4095 221° Southwest  Level FlightAware Approximate
12:28AM 38.9794 143.3050 221° Southwest  Level FlightAware Approximate
12:29AM 38.8819 143.2097 197° South  Level FlightAware Approximate
12:30AM 38.7630 143.1646 197° South  Level FlightAware Approximate
12:31AM 38.6442 143.1196 196° South  Level FlightAware Approximate
12:32AM 38.5254 143.0747 196° South  Level FlightAware Approximate
12:33AM 38.4065 143.0300 196° South  Level FlightAware Approximate
12:33AM 38.2420 143.3180 196° South 399 459 38,000  Level FlightAware
12:33AM 38.1820 143.2970 195° South 399 459 38,000  Level FlightAware
12:35AM 38.0420 143.2490 195° South 397 457 38,000  Level FlightAware
12:37AM 37.8896 143.0491 226° Southwest  Level Estimated
12:37AM 37.7940 143.1430 226° Southwest 369 425 38,000  Level FlightAware
12:38AM 37.6860 143.0710 208° Southwest 378 435 38,000  Level FlightAware
12:39AM 37.5780 143.0030 207° Southwest 376 433 38,000  Level FlightAware
12:40AM 37.5250 142.9700 206° Southwest 374 430 38,000  Level FlightAware
12:41AM 37.4450 142.9190 207° Southwest 375 432 38,000  Level FlightAware
12:42AM 37.3820 142.8800 206° Southwest 374 430 38,000  Level FlightAware
12:42AM 37.3220 142.8420 207° Southwest 375 432 38,000  Level FlightAware
12:43AM 37.2500 142.7960 207° Southwest 376 433 38,000  Level FlightAware
12:44AM 37.1900 142.7590 206° Southwest 374 430 38,000  Level FlightAware
12:44AM 37.1260 142.7180 207° Southwest 366 421 38,000  Level FlightAware
12:45AM 37.0580 142.6760 206° Southwest 364 419 38,000  Level FlightAware
12:46AM 36.9960 142.6370 207° Southwest 364 419 38,000  Level FlightAware
12:46AM 36.9280 142.5950 206° Southwest 362 417 38,000  Level FlightAware
12:47AM 36.8500 142.5460 207° Southwest 369 425 38,000  Level FlightAware
12:48AM 36.7690 142.4960 206° Southwest 368 423 38,000  Level FlightAware
12:49AM 36.6930 142.4490 206° Southwest 366 421 38,000  Level FlightAware
12:50AM 36.6330 142.4120 206° Southwest 364 419 38,000  Level FlightAware
12:50AM 36.5730 142.3750 206° Southwest 364 419 38,000  Level FlightAware
12:51AM 36.5210 142.3430 206° Southwest 362 417 38,000  Level FlightAware
12:52AM 36.4430 142.2950 206° Southwest 359 413 38,000 -240 Level FlightAware
12:52AM 36.3820 142.2580 206° Southwest 361 415 37,700 -1,140 Descending FlightAware
12:53AM 36.3350 142.2290 206° Southwest 358 412 36,600 -2,700 Descending FlightAware
12:54AM 36.2510 142.1780 206° Southwest 346 398 33,700 -2,820 Descending FlightAware
12:55AM 36.1780 142.1330 206° Southwest 326 375 31,700 -2,220 Descending FlightAware
12:56AM 36.1230 142.1000 206° Southwest 326 375 30,200 -2,100 Descending FlightAware
12:56AM 36.0750 142.0710 206° Southwest 320 368 28,900 -2,640 Descending FlightAware
12:57AM 36.0210 142.0350 208° Southwest 320 368 26,900 -2,100 Descending FlightAware
12:58AM 35.9660 141.9760 221° Southwest 321 369 25,800 -2,400 Descending FlightAware
12:58AM 35.9720 141.9370 281° West 324 373 24,300 -2,520 Descending FlightAware
12:59AM 35.9630 141.8580 262° West 321 369 23,500 -1,080 Descending FlightAware
12:59AM 35.9560 141.8000 262° West 320 368 23,000 -960 Descending FlightAware
01:00AM 35.9460 141.7000 263° West 310 357 22,000 -1,200 Descending FlightAware
01:01AM 35.9360 141.6150 262° West 310 357 20,900 -1,020 Descending FlightAware
01:02AM 35.9250 141.5180 262° West 307 353 20,300 -1,500 Descending FlightAware
01:03AM 35.9160 141.4430 262° West 297 342 18,400 -2,280 Descending FlightAware
01:03AM 35.9090 141.3770 263° West 299 344 17,100 -2,160 Descending FlightAware
01:04AM 35.9000 141.2950 262° West 299 344 15,400 -2,100 Descending FlightAware
01:04AM 35.8940 141.2480 261° West 299 344 14,500 -1,860 Descending FlightAware
01:05AM 35.8830 141.1570 262° West 295 339 12,800 -1,920 Descending FlightAware
01:06AM 35.8720 141.0620 262° West 290 334 11,000 -1,500 Descending FlightAware
01:07AM 35.8650 140.9970 262° West 267 307 10,500 -660 Descending FlightAware
01:08AM 35.8590 140.9470 262° West 247 284 10,200 -720 Descending FlightAware
01:08AM 35.8530 140.8990 261° West 244 281 9,700 -1,020 Descending FlightAware
01:08AM 35.8510 140.8710 265° West 250 288 9,300 -840 Descending FlightAware
01:09AM 35.8570 140.8420 284° West 260 299 9,100 -600 Descending FlightAware
01:10AM 35.8840 140.7860 301° West 257 296 8,700 -660 Descending FlightAware
01:10AM 35.8980 140.7550 299° West 251 289 8,400 -780 Descending FlightAware
01:10AM 35.9100 140.7150 290° West 245 282 8,000 -900 Descending FlightAware
01:11AM 35.9200 140.6740 287° West 247 284 7,500 -1,020 Descending FlightAware
01:11AM 35.9290 140.6410 289° West 248 285 7,100 -900 Descending FlightAware
01:12AM 35.9380 140.5990 285° West 251 289 6,700 -900 Descending FlightAware
01:12AM 35.9460 140.5650 286° West 253 291 6,300 -900 Descending FlightAware
01:13AM 35.9500 140.5450 284° West 248 285 6,100 -420 Descending FlightAware
01:13AM 35.9520 140.5240 277° West 239 275 6,100 -180 Level FlightAware
01:13AM 35.9500 140.4830 267° West 233 268 6,000 -660 Descending FlightAware
01:14AM 35.9530 140.4520 277° West 223 257 5,500 -1,320 Descending FlightAware
01:14AM 35.9610 140.4150 285° West 210 242 4,800 -1,140 Descending FlightAware
01:15AM 35.9650 140.3910 282° West 209 241 4,500 -900 Descending FlightAware
01:15AM 35.9730 140.3540 285° West 196 226 4,000 -1,020 Descending FlightAware
01:16AM 35.9770 140.3260 280° West 187 215 3,600 -1,020 Descending FlightAware
01:16AM 35.9780 140.2980 273° West 188 216 3,100 -900 Descending FlightAware
01:16AM 35.9770 140.2940 253° West 187 215 3,100  Level FlightAware
01:16AM 35.9600 140.2840 205° Southwest 170 196 3,100 -300 Level FlightAware
01:17AM 35.9260 140.2910 171° South 171 197 2,800 -480 Descending FlightAware
01:18AM 35.9080 140.3030 152° Southeast 173 199 2,600 -600 Descending FlightAware
01:18AM 35.8940 140.3140 148° Southeast 154 177 2,300 -600 Descending FlightAware
01:19AM 35.8690 140.3320 150° Southeast 155 178 2,000 -780 Descending FlightAware
01:19AM 35.8450 140.3500 149° Southeast 137 158 1,200 -780 Descending FlightAware
01:20AM 35.8190 140.3680 151° Southeast 137 158 900 -420 Descending FlightAware